Time;durP1;ratioP1;P1;durP2;ratioP2;P2;SDS_P1;SDS_P2;PMS_P1;PMS_P2;Temp;Humidity;BMP_temperature;BMP_pressure;BME280_temperature;BME280_humidity;BME280_pressure;Samples;Min_cycle;Max_cycle;Signal;HPM_P1;HPM_P2
2023/08/17 00:01:19;;;;;;;6.10;2.88;;;16.70;99.90;;;;;;5050664;28;20398;-62
2023/08/17 00:03:45;;;;;;;5.80;3.47;;;16.80;99.90;;;;;;5050854;28;20060;-63
2023/08/17 00:06:13;;;;;;;7.32;3.45;;;16.70;99.90;;;;;;5050707;28;20045;-62
2023/08/17 00:08:39;;;;;;;6.65;3.22;;;16.70;99.90;;;;;;5050883;28;20076;-62
2023/08/17 00:11:05;;;;;;;5.75;2.92;;;16.70;99.90;;;;;;5051222;28;20146;-62
2023/08/17 00:13:32;;;;;;;4.35;3.13;;;16.70;99.90;;;;;;5050789;28;20428;-62
2023/08/17 00:15:58;;;;;;;4.72;2.92;;;16.70;99.90;;;;;;5051152;28;20068;-63
2023/08/17 00:18:24;;;;;;;7.03;3.15;;;16.70;99.90;;;;;;5050751;28;20481;-63
2023/08/17 00:20:50;;;;;;;5.82;2.75;;;16.70;99.90;;;;;;5050812;28;20053;-63
2023/08/17 00:23:29;;;;;;;6.10;3.10;;;16.70;99.90;;;;;;5049398;28;20056;-62
2023/08/17 00:25:55;;;;;;;6.70;2.88;;;16.70;99.90;;;;;;5051015;28;20093;-62
2023/08/17 00:28:23;;;;;;;4.68;2.90;;;16.60;99.90;;;;;;5049100;28;20373;-62
2023/08/17 00:30:51;;;;;;;8.07;2.97;;;16.60;99.90;;;;;;5049316;28;20079;-63
2023/08/17 00:33:17;;;;;;;5.45;3.15;;;16.70;99.90;;;;;;5050186;28;20055;-63
2023/08/17 00:35:45;;;;;;;4.95;2.80;;;16.70;99.90;;;;;;5032913;28;20068;-62
2023/08/17 00:38:12;;;;;;;5.63;2.80;;;16.60;99.90;;;;;;5049732;28;20048;-63
2023/08/17 00:40:38;;;;;;;6.95;3.20;;;16.60;99.90;;;;;;5050477;28;20110;-63
2023/08/17 00:43:05;;;;;;;5.63;3.10;;;16.60;99.90;;;;;;5050459;28;20068;-62
2023/08/17 00:45:32;;;;;;;7.57;3.20;;;16.70;99.90;;;;;;5049451;28;20045;-62
2023/08/17 00:47:59;;;;;;;5.40;2.70;;;16.70;99.90;;;;;;5051004;28;20041;-63
2023/08/17 00:50:27;;;;;;;5.78;2.90;;;16.60;99.90;;;;;;5049265;28;20115;-62
2023/08/17 00:52:55;;;;;;;4.88;2.60;;;16.70;99.90;;;;;;5050555;28;20049;-62
2023/08/17 00:55:22;;;;;;;6.30;2.70;;;16.60;99.90;;;;;;5034683;28;20435;-63
2023/08/17 00:57:50;;;;;;;7.40;3.10;;;16.60;99.90;;;;;;5017553;28;20071;-63
2023/08/17 01:00:17;;;;;;;6.43;2.80;;;16.60;99.90;;;;;;5033317;28;20115;-62
2023/08/17 01:02:44;;;;;;;7.25;2.92;;;16.50;99.90;;;;;;5033514;28;20045;-63
2023/08/17 01:05:10;;;;;;;5.22;2.30;;;16.50;99.90;;;;;;5053724;28;20044;-63
2023/08/17 01:07:37;;;;;;;5.57;2.65;;;16.50;99.90;;;;;;5053544;28;20119;-63
2023/08/17 01:10:07;;;;;;;6.82;3.03;;;16.50;99.90;;;;;;5053148;28;20154;-62
2023/08/17 01:13:01;;;;;;;5.00;2.60;;;16.40;99.90;;;;;;5053383;28;20065;-62
2023/08/17 01:15:35;;;;;;;7.38;2.70;;;16.40;99.90;;;;;;5034287;28;20072;-63
2023/08/17 01:18:22;;;;;;;4.95;2.80;;;16.40;99.90;;;;;;5034295;28;20053;-62
2023/08/17 01:20:50;;;;;;;8.00;3.22;;;16.40;99.90;;;;;;5034208;28;20057;-62
2023/08/17 01:23:17;;;;;;;6.47;3.00;;;16.30;99.90;;;;;;5036641;28;20056;-63
2023/08/17 01:25:44;;;;;;;7.97;2.90;;;16.20;99.90;;;;;;5054148;28;20126;-63
2023/08/17 01:28:10;;;;;;;6.55;2.90;;;16.30;99.90;;;;;;5054251;28;20377;-63
2023/08/17 01:30:46;;;;;;;6.30;2.80;;;16.20;99.90;;;;;;5053924;28;20068;-62
2023/08/17 01:33:40;;;;;;;7.55;2.85;;;16.20;99.90;;;;;;5052967;28;20079;-63
2023/08/17 01:36:37;;;;;;;5.03;2.53;;;16.20;99.90;;;;;;5039605;28;20106;-62
2023/08/17 01:39:04;;;;;;;5.53;2.78;;;16.20;99.90;;;;;;5054078;28;20059;-63
2023/08/17 01:41:31;;;;;;;7.45;2.90;;;16.10;99.90;;;;;;5053810;28;20060;-62
2023/08/17 01:43:59;;;;;;;6.75;2.88;;;16.10;99.90;;;;;;5053638;28;20044;-62
2023/08/17 01:46:30;;;;;;;3.72;2.35;;;16.20;99.90;;;;;;5052751;28;20052;-63
2023/08/17 01:48:57;;;;;;;4.80;2.47;;;16.20;99.90;;;;;;5053352;28;20426;-63
2023/08/17 01:51:25;;;;;;;6.20;2.65;;;16.10;99.90;;;;;;5053939;28;20053;-63
2023/08/17 01:53:51;;;;;;;4.85;2.60;;;16.20;99.90;;;;;;5052079;28;20087;-63
2023/08/17 01:56:18;;;;;;;4.53;2.60;;;16.20;99.90;;;;;;5053569;28;20056;-62
2023/08/17 01:58:44;;;;;;;3.90;2.15;;;16.10;99.90;;;;;;5052926;28;20397;-62
2023/08/17 02:01:11;;;;;;;6.47;2.47;;;16.10;99.90;;;;;;5053176;28;20110;-63
2023/08/17 02:03:48;;;;;;;5.05;2.47;;;16.20;99.90;;;;;;5053468;28;20307;-63
2023/08/17 02:06:14;;;;;;;7.28;2.70;;;16.20;99.90;;;;;;5072332;28;20449;-63
2023/08/17 02:08:41;;;;;;;6.47;2.60;;;16.20;99.90;;;;;;5073117;28;20052;-62
2023/08/17 02:11:09;;;;;;;7.57;3.05;;;16.10;99.90;;;;;;5073105;28;20056;-63
2023/08/17 02:13:37;;;;;;;4.70;2.70;;;16.10;99.90;;;;;;5072768;28;20052;-63
2023/08/17 02:16:06;;;;;;;4.93;2.53;;;16.20;99.90;;;;;;5073141;28;20052;-62
2023/08/17 02:18:34;;;;;;;4.63;2.50;;;16.10;99.90;;;;;;5072935;28;20058;-63
2023/08/17 02:21:01;;;;;;;5.32;2.67;;;16.00;99.90;;;;;;5072797;28;20119;-63
2023/08/17 02:23:27;;;;;;;5.72;2.90;;;16.00;99.90;;;;;;5072595;28;20055;-63
2023/08/17 02:25:53;;;;;;;4.07;2.70;;;16.00;99.90;;;;;;5072947;28;20048;-63
2023/08/17 02:28:20;;;;;;;7.72;2.95;;;16.00;99.90;;;;;;5072631;28;20143;-62
2023/08/17 02:30:55;;;;;;;7.22;3.20;;;16.00;99.90;;;;;;5073147;28;20480;-62
2023/08/17 02:33:22;;;;;;;6.53;2.80;;;16.00;99.90;;;;;;5072451;28;20044;-62
2023/08/17 02:35:49;;;;;;;6.00;2.42;;;16.00;99.90;;;;;;5066278;28;20051;-62
2023/08/17 02:38:16;;;;;;;7.55;2.80;;;16.00;99.90;;;;;;5071482;28;20056;-62
2023/08/17 02:40:42;;;;;;;6.57;2.60;;;16.00;99.90;;;;;;5071173;28;20127;-62
2023/08/17 02:43:08;;;;;;;5.75;2.20;;;15.90;99.90;;;;;;5073848;28;20110;-62
2023/08/17 02:45:35;;;;;;;6.63;2.53;;;16.00;99.90;;;;;;5093051;28;20276;-62
2023/08/17 02:48:01;;;;;;;4.40;2.67;;;16.00;99.90;;;;;;5092985;28;20392;-63
2023/08/17 02:50:28;;;;;;;3.60;2.50;;;16.00;99.90;;;;;;5092191;28;20338;-63
2023/08/17 02:52:55;;;;;;;7.68;2.50;;;16.00;99.90;;;;;;5092596;28;20431;-63
2023/08/17 02:55:21;;;;;;;6.47;2.72;;;16.00;99.90;;;;;;5072964;28;20056;-63
2023/08/17 02:57:47;;;;;;;5.00;2.67;;;16.10;99.90;;;;;;5072126;28;20117;-63
2023/08/17 03:00:14;;;;;;;3.58;2.50;;;16.00;99.90;;;;;;5054082;28;20055;-63
2023/08/17 03:02:40;;;;;;;4.30;2.38;;;16.00;99.90;;;;;;5072326;28;20122;-62
2023/08/17 03:05:07;;;;;;;4.63;2.90;;;16.00;99.90;;;;;;5071710;28;20036;-63
2023/08/17 03:07:33;;;;;;;6.40;2.60;;;16.00;99.90;;;;;;5071985;28;20424;-63
2023/08/17 03:09:59;;;;;;;7.97;2.78;;;16.00;99.90;;;;;;5071835;28;20349;-63
2023/08/17 03:12:26;;;;;;;4.45;2.55;;;15.90;99.90;;;;;;5072871;28;20052;-62
2023/08/17 03:14:52;;;;;;;4.50;2.63;;;16.00;99.90;;;;;;5071754;28;20402;-63
2023/08/17 03:17:18;;;;;;;7.70;3.03;;;16.00;99.90;;;;;;5068482;28;20346;-62
2023/08/17 03:19:44;;;;;;;4.65;2.50;;;16.00;99.90;;;;;;5071271;28;20342;-62
2023/08/17 03:22:12;;;;;;;4.18;2.70;;;16.10;99.90;;;;;;5071453;28;20053;-63
2023/08/17 03:24:38;;;;;;;4.70;2.80;;;16.10;99.90;;;;;;5078480;28;20048;-62
2023/08/17 03:27:04;;;;;;;5.85;2.60;;;16.00;99.90;;;;;;5071709;28;20048;-63
2023/08/17 03:29:31;;;;;;;5.78;2.78;;;16.00;99.90;;;;;;5053378;28;20044;-62
2023/08/17 03:31:57;;;;;;;5.22;2.88;;;16.10;99.90;;;;;;5071722;28;20155;-63
2023/08/17 03:34:23;;;;;;;6.80;2.95;;;16.00;99.90;;;;;;5070906;28;20057;-63
2023/08/17 03:36:50;;;;;;;4.68;2.80;;;16.10;99.90;;;;;;5071692;28;20064;-62
2023/08/17 03:39:16;;;;;;;6.07;2.70;;;16.00;99.90;;;;;;5071996;28;20105;-63
2023/08/17 03:41:42;;;;;;;6.40;3.00;;;16.00;99.90;;;;;;5071283;28;20116;-63
2023/08/17 03:44:09;;;;;;;5.60;2.97;;;16.00;99.90;;;;;;5071088;28;20476;-63
2023/08/17 03:46:35;;;;;;;6.32;3.17;;;16.00;99.90;;;;;;5053738;28;20412;-62
2023/08/17 03:49:02;;;;;;;6.88;3.45;;;16.00;99.90;;;;;;5071077;28;20044;-63
2023/08/17 03:51:28;;;;;;;4.88;2.58;;;16.00;99.90;;;;;;5054510;28;20049;-63
2023/08/17 03:53:55;;;;;;;6.03;2.85;;;15.90;99.90;;;;;;5071245;28;20400;-63
2023/08/17 03:56:22;;;;;;;4.15;2.70;;;15.90;99.90;;;;;;5071692;28;20122;-62
2023/08/17 03:58:49;;;;;;;5.28;3.03;;;15.90;99.90;;;;;;5070966;28;20048;-62
2023/08/17 04:01:17;;;;;;;6.32;3.03;;;15.90;99.90;;;;;;5071235;28;20052;-63
2023/08/17 04:03:43;;;;;;;6.57;3.33;;;15.90;99.90;;;;;;5070465;28;20037;-62
2023/08/17 04:06:12;;;;;;;6.45;3.00;;;15.90;99.90;;;;;;5070541;28;20052;-62
2023/08/17 04:08:39;;;;;;;4.10;3.00;;;15.90;99.90;;;;;;5071129;28;20341;-63
2023/08/17 04:11:05;;;;;;;8.82;3.17;;;15.90;99.90;;;;;;5071255;28;20110;-62
2023/08/17 04:13:32;;;;;;;4.30;3.13;;;15.90;99.90;;;;;;5070762;28;20044;-62
2023/08/17 04:15:58;;;;;;;5.03;3.40;;;16.00;99.90;;;;;;5053297;28;20481;-63
2023/08/17 04:18:25;;;;;;;6.47;3.35;;;16.00;99.90;;;;;;5054383;28;20052;-63
2023/08/17 04:20:51;;;;;;;5.07;3.20;;;16.00;99.90;;;;;;5071097;28;20048;-63
2023/08/17 04:23:17;;;;;;;5.63;3.20;;;16.00;99.90;;;;;;5070158;28;20118;-63
2023/08/17 04:25:49;;;;;;;4.75;3.15;;;15.90;99.90;;;;;;5052855;28;20045;-63
2023/08/17 04:28:16;;;;;;;6.07;3.40;;;15.90;99.90;;;;;;5070575;28;20114;-63
2023/08/17 04:30:43;;;;;;;6.63;3.35;;;15.90;99.90;;;;;;5071096;28;20103;-63
2023/08/17 04:33:09;;;;;;;5.82;3.20;;;16.00;99.90;;;;;;5052904;28;20346;-63
2023/08/17 04:35:37;;;;;;;4.78;3.20;;;16.00;99.90;;;;;;5050596;28;20074;-63
2023/08/17 04:38:03;;;;;;;6.70;3.15;;;16.00;99.90;;;;;;5049905;28;20477;-63
2023/08/17 04:40:31;;;;;;;6.50;2.90;;;16.00;99.90;;;;;;5050967;28;20144;-61
2023/08/17 04:42:58;;;;;;;5.80;3.30;;;16.00;99.90;;;;;;5033067;28;20060;-62
2023/08/17 04:45:24;;;;;;;7.20;3.22;;;16.00;99.90;;;;;;5069348;28;20044;-63
2023/08/17 04:47:50;;;;;;;6.38;3.28;;;16.00;99.90;;;;;;5070979;28;20284;-63
2023/08/17 04:50:17;;;;;;;7.50;3.53;;;16.10;99.90;;;;;;5052626;28;20276;-63
2023/08/17 04:52:49;;;;;;;7.55;3.55;;;16.10;99.90;;;;;;5073269;28;20391;-63
2023/08/17 04:55:15;;;;;;;5.80;3.50;;;16.10;99.90;;;;;;5069752;28;20070;-62
2023/08/17 04:57:42;;;;;;;6.22;3.35;;;16.00;99.90;;;;;;5070340;28;20053;-63
2023/08/17 05:00:09;;;;;;;8.18;3.25;;;16.10;99.90;;;;;;5070081;28;20053;-62
2023/08/17 05:02:39;;;;;;;7.65;3.70;;;16.10;99.90;;;;;;5070207;28;20049;-63
2023/08/17 05:05:08;;;;;;;6.85;3.75;;;16.10;99.90;;;;;;5048869;28;20114;-62
2023/08/17 05:07:34;;;;;;;4.88;3.08;;;16.20;99.90;;;;;;5052407;28;20102;-63
2023/08/17 05:10:03;;;;;;;10.73;3.28;;;16.10;99.90;;;;;;5052155;28;20041;-62
2023/08/17 05:12:29;;;;;;;6.05;3.30;;;16.10;99.90;;;;;;5057846;28;20152;-63
2023/08/17 05:14:55;;;;;;;6.70;3.40;;;16.20;99.90;;;;;;5063009;28;20049;-63
2023/08/17 05:17:22;;;;;;;5.80;3.20;;;16.20;99.90;;;;;;5051957;28;20102;-62
2023/08/17 05:19:48;;;;;;;5.30;3.30;;;16.30;99.90;;;;;;5070669;28;20045;-62
2023/08/17 05:22:14;;;;;;;4.55;2.80;;;16.30;99.90;;;;;;5073310;28;20040;-63
2023/08/17 05:24:41;;;;;;;6.10;3.00;;;16.40;99.90;;;;;;5090700;28;20044;-62
2023/08/17 05:27:08;;;;;;;5.53;2.60;;;16.50;99.90;;;;;;5083104;28;20055;-62
2023/08/17 05:29:34;;;;;;;6.82;2.72;;;16.60;99.90;;;;;;5090121;28;20052;-63
2023/08/17 05:32:00;;;;;;;5.85;2.50;;;16.60;99.90;;;;;;5089919;28;20369;-63
2023/08/17 05:34:27;;;;;;;5.47;2.67;;;16.70;99.90;;;;;;5089132;28;20120;-62
2023/08/17 05:36:53;;;;;;;5.68;2.40;;;16.70;99.90;;;;;;5089821;28;20055;-63
2023/08/17 05:39:20;;;;;;;6.70;2.58;;;16.80;99.90;;;;;;5090401;28;20052;-63
2023/08/17 05:41:46;;;;;;;4.55;2.70;;;16.80;99.90;;;;;;5092114;28;20055;-62
2023/08/17 05:44:14;;;;;;;5.35;2.90;;;16.90;99.90;;;;;;5093693;28;20036;-63
2023/08/17 05:46:40;;;;;;;5.13;2.55;;;17.20;99.90;;;;;;5091250;28;20097;-63
2023/08/17 05:49:06;;;;;;;6.15;2.58;;;17.50;99.90;;;;;;5092839;28;20426;-63
2023/08/17 05:51:33;;;;;;;6.65;2.70;;;18.00;99.90;;;;;;5092897;28;20044;-63
2023/08/17 05:53:59;;;;;;;8.98;2.65;;;18.20;99.90;;;;;;5093784;28;20040;-63
2023/08/17 05:56:25;;;;;;;6.03;2.60;;;18.60;99.90;;;;;;5093924;28;20434;-63
2023/08/17 05:58:51;;;;;;;6.13;2.55;;;18.80;99.90;;;;;;5092805;28;20319;-63
2023/08/17 06:01:18;;;;;;;7.18;2.83;;;18.60;99.90;;;;;;5093679;28;20054;-63
2023/08/17 06:03:45;;;;;;;5.72;2.67;;;18.30;99.90;;;;;;5075398;28;20036;-63
2023/08/17 06:06:13;;;;;;;5.57;2.70;;;18.00;99.90;;;;;;5093470;28;20425;-62
2023/08/17 06:08:39;;;;;;;5.90;2.47;;;17.80;99.90;;;;;;5093326;28;20051;-62
2023/08/17 06:11:05;;;;;;;5.30;2.53;;;17.60;99.90;;;;;;5092034;28;20043;-62
2023/08/17 06:13:31;;;;;;;4.97;2.58;;;17.50;99.90;;;;;;5090223;28;20052;-62
2023/08/17 06:15:58;;;;;;;6.15;2.42;;;17.40;99.90;;;;;;5091388;28;20406;-63
2023/08/17 06:18:24;;;;;;;4.45;2.35;;;17.40;99.90;;;;;;5081436;28;20092;-63
2023/08/17 06:20:53;;;;;;;4.25;2.67;;;17.30;99.90;;;;;;5091246;28;20052;-62
2023/08/17 06:23:20;;;;;;;4.93;2.33;;;17.30;99.90;;;;;;5073162;28;20036;-62
2023/08/17 06:25:46;;;;;;;5.72;2.50;;;17.30;99.90;;;;;;5082123;28;20188;-62
2023/08/17 06:28:12;;;;;;;6.25;2.83;;;17.30;99.90;;;;;;5092103;28;20040;-62
2023/08/17 06:30:39;;;;;;;8.32;2.55;;;17.40;99.90;;;;;;5080444;28;20040;-62
2023/08/17 06:33:05;;;;;;;6.25;2.45;;;17.30;99.90;;;;;;5092549;28;20675;-62
2023/08/17 06:35:32;;;;;;;7.32;2.35;;;17.40;99.90;;;;;;5092082;28;20048;-62
2023/08/17 06:37:58;;;;;;;8.70;2.47;;;17.40;99.90;;;;;;5084592;28;20052;-63
2023/08/17 06:40:25;;;;;;;4.95;2.47;;;17.40;99.90;;;;;;5083876;28;20056;-62
2023/08/17 06:42:53;;;;;;;4.45;2.38;;;17.40;99.90;;;;;;5081150;28;20040;-62
2023/08/17 06:45:20;;;;;;;5.13;2.80;;;17.50;99.90;;;;;;5086234;28;20449;-62
2023/08/17 06:47:52;;;;;;;4.35;2.10;;;17.50;99.90;;;;;;5063520;28;20143;-62
2023/08/17 06:50:18;;;;;;;5.20;2.30;;;17.50;99.90;;;;;;5079654;28;20464;-63
2023/08/17 06:52:44;;;;;;;5.25;2.55;;;17.50;99.90;;;;;;5083571;28;20200;-62
2023/08/17 06:55:11;;;;;;;6.68;2.75;;;17.60;99.90;;;;;;5086037;28;20105;-63
2023/08/17 06:57:37;;;;;;;6.68;2.40;;;17.60;99.90;;;;;;5089220;28;20150;-60
2023/08/17 07:00:07;;;;;;;8.70;2.15;;;17.60;99.90;;;;;;5092906;28;20044;-61
2023/08/17 07:02:34;;;;;;;5.20;2.28;;;17.70;99.90;;;;;;5093433;28;20040;-61
2023/08/17 07:05:00;;;;;;;3.92;2.03;;;17.80;99.90;;;;;;5092655;28;20156;-61
2023/08/17 07:07:27;;;;;;;3.88;2.10;;;17.80;99.90;;;;;;5093227;28;20310;-61
2023/08/17 07:09:53;;;;;;;7.07;2.70;;;17.70;99.90;;;;;;5092505;28;20367;-61
2023/08/17 07:12:19;;;;;;;5.50;1.95;;;17.80;99.90;;;;;;5093001;28;20056;-60
2023/08/17 07:14:45;;;;;;;7.45;2.40;;;17.90;99.90;;;;;;5092414;28;20051;-60
2023/08/17 07:17:12;;;;;;;6.72;2.45;;;17.90;99.90;;;;;;5092745;28;20109;-61
2023/08/17 07:19:38;;;;;;;6.30;2.65;;;18.00;99.90;;;;;;5092391;28;20140;-61
2023/08/17 07:22:04;;;;;;;5.20;2.28;;;18.20;99.90;;;;;;5092738;28;20052;-61
2023/08/17 07:24:31;;;;;;;4.00;2.25;;;18.30;99.90;;;;;;5092887;28;20039;-61
2023/08/17 07:26:57;;;;;;;6.13;2.70;;;18.40;99.90;;;;;;5093029;28;20048;-60
2023/08/17 07:29:23;;;;;;;7.10;2.40;;;18.60;99.90;;;;;;5092698;28;20106;-61
2023/08/17 07:31:49;;;;;;;6.10;2.15;;;18.70;99.90;;;;;;5092923;28;20040;-61
2023/08/17 07:34:16;;;;;;;6.10;2.35;;;18.80;99.90;;;;;;5074350;28;20113;-62
2023/08/17 07:36:42;;;;;;;8.60;2.38;;;18.80;99.90;;;;;;5091985;28;20051;-61
2023/08/17 07:39:08;;;;;;;5.40;2.13;;;18.80;99.90;;;;;;5092527;28;20059;-61
2023/08/17 07:41:35;;;;;;;5.72;2.20;;;18.80;99.90;;;;;;5092762;28;20044;-61
2023/08/17 07:44:01;;;;;;;6.78;2.50;;;18.90;99.90;;;;;;5092311;28;20040;-61
2023/08/17 07:46:27;;;;;;;6.18;2.20;;;18.80;99.90;;;;;;5092622;28;20051;-61
2023/08/17 07:48:53;;;;;;;6.65;2.40;;;18.90;99.90;;;;;;5092439;28;20052;-61
2023/08/17 07:51:20;;;;;;;5.07;2.03;;;18.80;99.90;;;;;;5092495;28;20105;-61
2023/08/17 07:53:46;;;;;;;5.57;2.42;;;19.00;99.90;;;;;;5092366;28;20129;-61
2023/08/17 07:56:12;;;;;;;4.07;2.05;;;18.90;99.90;;;;;;5092452;28;20066;-61
2023/08/17 07:58:39;;;;;;;6.53;2.35;;;19.00;99.90;;;;;;5092112;28;20071;-61
2023/08/17 08:01:05;;;;;;;5.55;2.50;;;19.00;99.90;;;;;;5092515;28;20051;-61
2023/08/17 08:03:32;;;;;;;5.00;2.22;;;18.90;99.90;;;;;;5091449;28;20044;-61
2023/08/17 08:05:58;;;;;;;7.28;2.60;;;18.80;99.90;;;;;;5092323;28;20372;-61
2023/08/17 08:08:24;;;;;;;3.47;1.77;;;18.90;99.90;;;;;;5091837;28;20184;-61
2023/08/17 08:10:53;;;;;;;4.43;1.85;;;18.80;99.90;;;;;;5092125;28;20040;-61
2023/08/17 08:13:19;;;;;;;5.63;2.33;;;18.70;99.90;;;;;;5091370;28;20113;-62
2023/08/17 08:15:45;;;;;;;6.53;2.22;;;18.70;99.90;;;;;;5091712;28;20067;-61
2023/08/17 08:18:11;;;;;;;3.80;2.03;;;18.80;99.90;;;;;;5091759;28;20055;-61
2023/08/17 08:20:38;;;;;;;4.55;1.80;;;18.70;99.90;;;;;;5091900;28;20048;-62
2023/08/17 08:23:04;;;;;;;5.05;2.00;;;18.80;99.90;;;;;;5091941;28;20036;-62
2023/08/17 08:25:30;;;;;;;5.45;2.10;;;18.80;99.90;;;;;;5091561;28;20140;-62
2023/08/17 08:27:56;;;;;;;5.00;1.90;;;18.90;99.90;;;;;;5091924;28;20043;-62
2023/08/17 08:30:23;;;;;;;6.88;2.10;;;18.90;99.90;;;;;;5091614;28;20089;-62
2023/08/17 08:32:50;;;;;;;3.95;1.92;;;18.90;99.90;;;;;;5091592;28;20062;-62
2023/08/17 08:35:16;;;;;;;3.97;1.90;;;19.00;99.90;;;;;;5091047;28;20486;-62
2023/08/17 08:37:42;;;;;;;6.40;1.92;;;19.00;99.90;;;;;;5091469;28;20060;-62
2023/08/17 08:40:15;;;;;;;5.68;1.92;;;19.10;99.90;;;;;;5090930;28;20479;-62
2023/08/17 08:42:44;;;;;;;5.05;1.92;;;19.20;99.90;;;;;;5091353;28;20052;-61
2023/08/17 08:45:11;;;;;;;4.30;1.90;;;19.30;99.90;;;;;;5090661;28;20037;-62
2023/08/17 08:47:39;;;;;;;4.35;1.90;;;19.40;99.90;;;;;;5091005;28;20055;-61
2023/08/17 08:50:06;;;;;;;5.13;2.10;;;19.60;99.90;;;;;;5091138;28;20048;-62
2023/08/17 08:52:57;;;;;;;4.88;2.10;;;19.70;99.90;;;;;;5091555;28;20109;-61
2023/08/17 08:55:26;;;;;;;4.63;1.75;;;19.90;99.90;;;;;;5080172;28;20528;-62
2023/08/17 08:57:53;;;;;;;4.15;2.00;;;20.00;99.90;;;;;;5091245;28;20067;-61
2023/08/17 09:00:20;;;;;;;4.65;2.20;;;20.10;99.90;;;;;;5091064;28;20076;-61
2023/08/17 09:02:47;;;;;;;4.45;1.92;;;20.10;99.90;;;;;;5091211;28;20286;-62
2023/08/17 09:05:14;;;;;;;4.13;2.00;;;20.20;99.90;;;;;;5090695;28;20130;-62
2023/08/17 09:07:42;;;;;;;3.55;1.50;;;20.30;99.90;;;;;;5073406;28;20067;-62
2023/08/17 09:10:10;;;;;;;3.88;2.10;;;20.30;99.90;;;;;;5072950;28;20395;-62
2023/08/17 09:12:39;;;;;;;5.13;2.13;;;20.50;99.90;;;;;;5091250;28;20051;-62
2023/08/17 09:15:06;;;;;;;5.30;2.20;;;20.50;99.90;;;;;;5092750;28;20357;-62
2023/08/17 09:17:34;;;;;;;4.15;1.73;;;20.50;99.90;;;;;;5095694;28;20070;-62
2023/08/17 09:20:00;;;;;;;4.20;1.95;;;20.70;99.90;;;;;;5095147;28;20047;-62
2023/08/17 09:22:41;;;;;;;4.90;2.10;;;20.60;99.90;;;;;;5094870;28;20185;-62
2023/08/17 09:25:09;;;;;;;8.40;2.10;;;20.60;99.90;;;;;;5094788;28;20048;-63
2023/08/17 09:27:41;;;;;;;4.22;1.90;;;20.60;99.90;;;;;;5094907;28;20051;-62
2023/08/17 09:30:09;;;;;;;5.20;1.98;;;20.50;99.90;;;;;;5094467;28;20051;-62
2023/08/17 09:32:35;;;;;;;5.38;2.03;;;20.50;99.90;;;;;;5094956;28;20052;-62
2023/08/17 09:35:04;;;;;;;4.30;1.90;;;20.40;99.90;;;;;;5094911;28;20064;-61
2023/08/17 09:37:30;;;;;;;5.40;2.05;;;20.40;99.90;;;;;;5094546;28;20444;-62
2023/08/17 09:39:57;;;;;;;3.95;2.40;;;20.30;99.90;;;;;;5094630;28;20105;-62
2023/08/17 09:42:25;;;;;;;4.93;1.92;;;20.30;99.90;;;;;;5094597;28;20120;-62
2023/08/17 09:44:52;;;;;;;3.30;1.98;;;20.30;99.90;;;;;;5094465;28;20044;-61
2023/08/17 09:47:21;;;;;;;6.20;2.30;;;20.20;99.90;;;;;;5094292;28;20431;-62
2023/08/17 09:49:52;;;;;;;3.90;2.10;;;20.30;99.90;;;;;;5075972;28;20058;-62
2023/08/17 09:52:19;;;;;;;5.90;2.38;;;20.30;99.90;;;;;;5076309;28;20059;-63
2023/08/17 09:54:50;;;;;;;7.20;2.65;;;20.40;99.90;;;;;;5093631;28;20056;-61
2023/08/17 09:57:16;;;;;;;4.07;1.85;;;20.40;99.90;;;;;;5094355;28;20101;-61
2023/08/17 09:59:42;;;;;;;5.40;1.90;;;20.40;99.90;;;;;;5075793;28;20052;-62
2023/08/17 10:02:15;;;;;;;3.28;2.08;;;20.60;99.90;;;;;;5094497;28;20044;-62
2023/08/17 10:04:42;;;;;;;6.50;2.15;;;20.70;99.90;;;;;;5094249;28;20051;-62
2023/08/17 10:07:10;;;;;;;5.85;2.20;;;20.70;99.90;;;;;;5076160;28;20048;-62
2023/08/17 10:09:42;;;;;;;5.38;2.50;;;20.80;99.90;;;;;;5075887;28;20333;-62
2023/08/17 10:12:16;;;;;;;5.88;2.13;;;20.80;99.90;;;;;;5093860;28;20415;-62
2023/08/17 10:14:49;;;;;;;3.00;1.73;;;20.90;99.90;;;;;;5093629;28;20058;-62
2023/08/17 10:17:22;;;;;;;4.15;2.25;;;20.80;99.90;;;;;;5094038;28;20388;-62
2023/08/17 10:19:56;;;;;;;3.53;1.98;;;20.80;99.90;;;;;;5094499;28;20048;-62
2023/08/17 10:22:47;;;;;;;3.45;2.00;;;20.70;99.90;;;;;;5093987;28;20055;-62
2023/08/17 10:25:15;;;;;;;4.35;2.08;;;20.60;99.90;;;;;;5093544;28;20056;-62
2023/08/17 10:27:42;;;;;;;3.95;2.03;;;20.60;99.90;;;;;;5093424;28;20044;-62
2023/08/17 10:30:10;;;;;;;4.53;2.13;;;20.50;99.90;;;;;;5093826;28;20464;-62
2023/08/17 10:32:37;;;;;;;5.07;1.98;;;20.50;99.90;;;;;;5093643;28;20040;-62
2023/08/17 10:35:05;;;;;;;5.40;2.50;;;20.50;99.90;;;;;;5093796;28;20046;-62
2023/08/17 10:37:32;;;;;;;5.28;2.40;;;20.40;99.90;;;;;;5093503;28;20551;-62
2023/08/17 10:39:59;;;;;;;6.05;2.28;;;20.30;99.90;;;;;;5075627;28;20048;-62
2023/08/17 10:42:32;;;;;;;5.82;2.55;;;20.30;99.90;;;;;;5093469;28;20055;-62
2023/08/17 10:44:58;;;;;;;5.85;2.30;;;20.20;99.90;;;;;;5093549;28;20048;-62
2023/08/17 10:47:26;;;;;;;4.20;2.00;;;20.20;99.90;;;;;;5093860;28;20048;-62
2023/08/17 10:50:22;;;;;;;4.18;2.50;;;20.20;99.90;;;;;;5093216;28;20044;-61
2023/08/17 10:52:50;;;;;;;6.35;2.55;;;20.30;99.90;;;;;;5084793;28;20052;-62
2023/08/17 10:55:18;;;;;;;5.32;2.30;;;20.30;99.90;;;;;;5092894;28;20055;-62
2023/08/17 10:57:45;;;;;;;3.67;1.98;;;20.40;99.90;;;;;;5092735;28;20555;-62
2023/08/17 11:00:17;;;;;;;5.13;2.47;;;20.50;99.90;;;;;;5093128;28;20055;-62
2023/08/17 11:02:45;;;;;;;4.55;2.60;;;20.60;99.90;;;;;;5058520;28;20452;-62
2023/08/17 11:05:17;;;;;;;6.05;2.97;;;20.70;99.90;;;;;;5092034;28;20143;-62
2023/08/17 11:07:44;;;;;;;3.47;2.40;;;20.80;99.90;;;;;;5092155;28;20109;-62
2023/08/17 11:10:19;;;;;;;4.05;2.45;;;20.80;99.90;;;;;;5075045;28;20087;-63
2023/08/17 11:12:45;;;;;;;4.45;2.35;;;20.80;99.90;;;;;;5093215;28;20044;-63
2023/08/17 11:15:11;;;;;;;5.28;2.50;;;20.90;99.90;;;;;;5092398;28;20415;-61
2023/08/17 11:17:38;;;;;;;5.07;2.55;;;20.90;99.90;;;;;;5092484;28;20438;-62
2023/08/17 11:20:05;;;;;;;4.78;2.63;;;20.90;99.90;;;;;;5092576;28;20113;-62
2023/08/17 11:22:31;;;;;;;4.88;2.80;;;21.00;99.90;;;;;;5074797;28;20044;-62
2023/08/17 11:24:58;;;;;;;4.60;2.45;;;21.00;99.90;;;;;;5092243;28;20077;-62
2023/08/17 11:27:25;;;;;;;5.18;2.70;;;21.10;99.90;;;;;;5092886;28;20052;-62
2023/08/17 11:29:52;;;;;;;5.65;2.50;;;21.20;99.90;;;;;;5074696;28;20056;-62
2023/08/17 11:32:18;;;;;;;5.07;2.63;;;21.40;99.90;;;;;;5092650;28;20052;-62
2023/08/17 11:34:44;;;;;;;4.93;2.90;;;21.40;99.90;;;;;;5092506;28;20060;-62
2023/08/17 11:37:14;;;;;;;5.70;2.58;;;21.40;99.90;;;;;;5092096;28;20055;-61
2023/08/17 11:39:40;;;;;;;5.22;2.78;;;21.40;99.90;;;;;;5091856;28;20051;-62
2023/08/17 11:42:07;;;;;;;6.93;2.80;;;21.40;99.90;;;;;;5092632;28;20044;-62
2023/08/17 11:44:34;;;;;;;4.00;2.40;;;21.40;99.90;;;;;;5092106;28;20102;-62
2023/08/17 11:47:00;;;;;;;5.85;2.25;;;21.40;99.90;;;;;;5092699;28;20133;-62
2023/08/17 11:49:26;;;;;;;5.85;2.40;;;21.50;99.90;;;;;;5091845;28;20348;-62
2023/08/17 11:51:52;;;;;;;6.05;2.70;;;21.50;99.90;;;;;;5092499;28;20051;-62
2023/08/17 11:54:19;;;;;;;6.30;3.10;;;21.50;99.90;;;;;;5091769;28;20048;-62
2023/08/17 11:56:45;;;;;;;4.10;2.88;;;21.50;99.90;;;;;;5092374;28;20052;-62
2023/08/17 11:59:18;;;;;;;4.93;2.47;;;21.50;99.90;;;;;;5091957;28;20055;-62
2023/08/17 12:01:45;;;;;;;4.72;2.70;;;21.40;99.90;;;;;;5075335;28;20097;-62
2023/08/17 12:04:11;;;;;;;6.05;3.40;;;21.50;99.90;;;;;;5092065;28;20040;-62
2023/08/17 12:06:44;;;;;;;5.43;3.28;;;21.40;99.90;;;;;;5091795;28;20055;-63
2023/08/17 12:09:13;;;;;;;5.00;3.10;;;21.50;99.90;;;;;;5091792;28;20498;-62
2023/08/17 12:11:40;;;;;;;5.13;2.50;;;21.50;99.90;;;;;;5092239;28;20044;-62
2023/08/17 12:14:11;;;;;;;5.75;3.33;;;21.50;99.90;;;;;;5091802;28;20048;-62
2023/08/17 12:16:50;;;;;;;6.03;3.45;;;21.50;99.90;;;;;;5092132;28;20235;-62
2023/08/17 12:19:16;;;;;;;7.07;3.50;;;21.40;99.90;;;;;;5091670;28;20047;-62
2023/08/17 12:21:42;;;;;;;5.00;3.13;;;21.30;99.90;;;;;;5091642;28;20479;-62
2023/08/17 12:24:10;;;;;;;6.13;3.95;;;21.30;99.90;;;;;;5072625;28;20113;-62
2023/08/17 12:26:40;;;;;;;5.70;3.65;;;21.20;99.90;;;;;;5080613;28;20530;-62
2023/08/17 12:29:07;;;;;;;7.65;4.35;;;21.20;99.90;;;;;;5064219;28;20352;-62
2023/08/17 12:31:34;;;;;;;6.45;3.88;;;21.10;99.90;;;;;;5082593;28;20055;-62
2023/08/17 12:34:01;;;;;;;6.55;3.50;;;21.20;99.90;;;;;;5086303;28;20379;-63
2023/08/17 12:36:27;;;;;;;5.18;3.40;;;21.10;99.90;;;;;;5079086;28;20052;-62
2023/08/17 12:38:54;;;;;;;4.75;3.30;;;21.20;99.90;;;;;;5082583;28;20453;-63
2023/08/17 12:41:20;;;;;;;4.78;3.60;;;21.30;99.90;;;;;;5063139;28;20087;-62
2023/08/17 12:43:47;;;;;;;5.22;3.72;;;21.40;99.90;;;;;;5083453;28;20107;-63
2023/08/17 12:46:13;;;;;;;4.70;3.53;;;21.50;99.90;;;;;;5086321;28;20094;-64
2023/08/17 12:48:39;;;;;;;5.35;3.90;;;21.50;99.90;;;;;;5080735;28;20040;-64
2023/08/17 12:51:06;;;;;;;8.20;3.90;;;21.60;99.90;;;;;;5083672;28;20201;-63